sensor_id;sensor_type;location;lat;lon;timestamp;temperature;humidity
63317;DHT22;49822;41.468;13.560;2022-12-07T00:01:38;8.80;92.20
63317;DHT22;49822;41.468;13.560;2022-12-07T00:04:09;8.80;92.30
63317;DHT22;49822;41.468;13.560;2022-12-07T00:06:42;8.90;92.80
63317;DHT22;49822;41.468;13.560;2022-12-07T00:09:13;8.90;92.70
63317;DHT22;49822;41.468;13.560;2022-12-07T00:11:41;8.90;92.70
63317;DHT22;49822;41.468;13.560;2022-12-07T00:14:13;8.90;92.20
63317;DHT22;49822;41.468;13.560;2022-12-07T00:16:42;8.80;92.10
63317;DHT22;49822;41.468;13.560;2022-12-07T00:19:12;8.80;92.60
63317;DHT22;49822;41.468;13.560;2022-12-07T00:21:40;8.80;92.50
63317;DHT22;49822;41.468;13.560;2022-12-07T00:24:10;8.80;93.10
63317;DHT22;49822;41.468;13.560;2022-12-07T00:26:40;8.70;93.30
63317;DHT22;49822;41.468;13.560;2022-12-07T00:29:18;8.60;93.70
63317;DHT22;49822;41.468;13.560;2022-12-07T00:31:46;8.80;94.00
63317;DHT22;49822;41.468;13.560;2022-12-07T00:34:17;8.80;93.60
63317;DHT22;49822;41.468;13.560;2022-12-07T00:36:45;8.80;93.80
63317;DHT22;49822;41.468;13.560;2022-12-07T00:39:12;8.80;93.20
63317;DHT22;49822;41.468;13.560;2022-12-07T00:41:41;8.80;93.00
63317;DHT22;49822;41.468;13.560;2022-12-07T00:44:09;8.90;93.00
63317;DHT22;49822;41.468;13.560;2022-12-07T00:46:37;8.90;92.20
63317;DHT22;49822;41.468;13.560;2022-12-07T00:49:04;8.60;92.00
63317;DHT22;49822;41.468;13.560;2022-12-07T00:51:33;8.60;92.80
63317;DHT22;49822;41.468;13.560;2022-12-07T00:54:03;8.60;92.60
63317;DHT22;49822;41.468;13.560;2022-12-07T00:56:31;8.40;91.80
63317;DHT22;49822;41.468;13.560;2022-12-07T00:59:01;8.40;92.00
63317;DHT22;49822;41.468;13.560;2022-12-07T01:01:34;8.50;92.50
63317;DHT22;49822;41.468;13.560;2022-12-07T01:04:04;8.50;92.30
63317;DHT22;49822;41.468;13.560;2022-12-07T01:06:33;8.00;89.10
63317;DHT22;49822;41.468;13.560;2022-12-07T01:09:01;7.80;91.70
63317;DHT22;49822;41.468;13.560;2022-12-07T01:11:30;7.80;93.40
63317;DHT22;49822;41.468;13.560;2022-12-07T01:13:59;8.10;95.20
63317;DHT22;49822;41.468;13.560;2022-12-07T01:16:30;8.20;95.10
63317;DHT22;49822;41.468;13.560;2022-12-07T01:18:58;8.20;94.10
63317;DHT22;49822;41.468;13.560;2022-12-07T01:21:28;8.10;93.60
63317;DHT22;49822;41.468;13.560;2022-12-07T01:23:59;7.70;91.70
63317;DHT22;49822;41.468;13.560;2022-12-07T01:26:27;7.80;93.20
63317;DHT22;49822;41.468;13.560;2022-12-07T01:28:55;7.90;94.20
63317;DHT22;49822;41.468;13.560;2022-12-07T01:31:25;8.00;94.50
63317;DHT22;49822;41.468;13.560;2022-12-07T01:33:56;8.00;93.70
63317;DHT22;49822;41.468;13.560;2022-12-07T01:36:27;7.90;93.40
63317;DHT22;49822;41.468;13.560;2022-12-07T01:38:57;8.00;93.90
63317;DHT22;49822;41.468;13.560;2022-12-07T01:41:28;8.10;93.30
63317;DHT22;49822;41.468;13.560;2022-12-07T01:46:46;7.90;92.00
63317;DHT22;49822;41.468;13.560;2022-12-07T01:49:29;8.00;92.30
63317;DHT22;49822;41.468;13.560;2022-12-07T01:54:44;7.90;91.80
63317;DHT22;49822;41.468;13.560;2022-12-07T01:57:15;8.00;92.20
63317;DHT22;49822;41.468;13.560;2022-12-07T01:59:44;8.00;92.10
63317;DHT22;49822;41.468;13.560;2022-12-07T02:02:20;7.50;88.90
63317;DHT22;49822;41.468;13.560;2022-12-07T02:04:51;7.20;90.20
63317;DHT22;49822;41.468;13.560;2022-12-07T02:07:20;7.20;91.60
63317;DHT22;49822;41.468;13.560;2022-12-07T02:09:49;7.40;92.60
63317;DHT22;49822;41.468;13.560;2022-12-07T02:12:16;7.20;91.70
63317;DHT22;49822;41.468;13.560;2022-12-07T02:14:45;7.10;92.30
63317;DHT22;49822;41.468;13.560;2022-12-07T02:31:27;7.50;95.20
63317;DHT22;49822;41.468;13.560;2022-12-07T02:37:43;7.20;92.60
63317;DHT22;49822;41.468;13.560;2022-12-07T02:42:58;7.30;93.10
63317;DHT22;49822;41.468;13.560;2022-12-07T02:45:30;7.20;92.90
63317;DHT22;49822;41.468;13.560;2022-12-07T02:48:00;7.40;93.20
63317;DHT22;49822;41.468;13.560;2022-12-07T02:50:29;7.40;93.00
63317;DHT22;49822;41.468;13.560;2022-12-07T02:52:57;7.40;92.00
63317;DHT22;49822;41.468;13.560;2022-12-07T02:55:37;7.50;92.10
63317;DHT22;49822;41.468;13.560;2022-12-07T03:03:47;7.20;93.20
63317;DHT22;49822;41.468;13.560;2022-12-07T03:06:23;7.40;93.50
63317;DHT22;49822;41.468;13.560;2022-12-07T03:09:18;7.50;93.60
63317;DHT22;49822;41.468;13.560;2022-12-07T03:11:59;7.70;93.80
63317;DHT22;49822;41.468;13.560;2022-12-07T03:14:37;7.80;93.70
63317;DHT22;49822;41.468;13.560;2022-12-07T03:17:15;8.00;93.80
63317;DHT22;49822;41.468;13.560;2022-12-07T03:19:46;8.10;93.70
63317;DHT22;49822;41.468;13.560;2022-12-07T03:22:14;8.20;93.60
63317;DHT22;49822;41.468;13.560;2022-12-07T03:24:55;8.20;92.70
63317;DHT22;49822;41.468;13.560;2022-12-07T03:27:30;8.00;91.80
63317;DHT22;49822;41.468;13.560;2022-12-07T03:30:04;7.90;91.40
63317;DHT22;49822;41.468;13.560;2022-12-07T03:32:41;7.80;91.90
63317;DHT22;49822;41.468;13.560;2022-12-07T03:35:28;7.70;92.00
63317;DHT22;49822;41.468;13.560;2022-12-07T03:38:00;7.70;92.30
63317;DHT22;49822;41.468;13.560;2022-12-07T03:40:37;7.70;92.60
63317;DHT22;49822;41.468;13.560;2022-12-07T03:43:07;7.80;93.00
63317;DHT22;49822;41.468;13.560;2022-12-07T03:45:44;8.00;93.30
63317;DHT22;49822;41.468;13.560;2022-12-07T03:48:30;7.80;91.90
63317;DHT22;49822;41.468;13.560;2022-12-07T03:53:43;7.20;91.70
63317;DHT22;49822;41.468;13.560;2022-12-07T03:56:14;7.10;92.60
63317;DHT22;49822;41.468;13.560;2022-12-07T03:58:42;7.10;93.40
63317;DHT22;49822;41.468;13.560;2022-12-07T04:01:12;7.00;93.40
63317;DHT22;49822;41.468;13.560;2022-12-07T04:03:40;7.00;93.00
63317;DHT22;49822;41.468;13.560;2022-12-07T04:06:08;7.00;93.70
63317;DHT22;49822;41.468;13.560;2022-12-07T04:08:35;7.20;93.90
63317;DHT22;49822;41.468;13.560;2022-12-07T04:11:12;7.00;93.90
63317;DHT22;49822;41.468;13.560;2022-12-07T04:14:01;7.20;94.70
63317;DHT22;49822;41.468;13.560;2022-12-07T04:16:54;7.20;94.90
63317;DHT22;49822;41.468;13.560;2022-12-07T04:19:28;7.30;94.90
63317;DHT22;49822;41.468;13.560;2022-12-07T04:21:56;7.50;95.30
63317;DHT22;49822;41.468;13.560;2022-12-07T04:24:24;7.50;94.90
63317;DHT22;49822;41.468;13.560;2022-12-07T04:26:52;7.50;94.30
63317;DHT22;49822;41.468;13.560;2022-12-07T04:29:21;7.40;94.10
63317;DHT22;49822;41.468;13.560;2022-12-07T04:31:51;7.40;93.70
63317;DHT22;49822;41.468;13.560;2022-12-07T04:34:19;7.40;94.10
63317;DHT22;49822;41.468;13.560;2022-12-07T04:36:48;7.50;94.00
63317;DHT22;49822;41.468;13.560;2022-12-07T04:39:20;7.20;92.00
63317;DHT22;49822;41.468;13.560;2022-12-07T04:41:49;7.10;92.90
63317;DHT22;49822;41.468;13.560;2022-12-07T04:44:20;7.20;93.80
63317;DHT22;49822;41.468;13.560;2022-12-07T04:46:50;7.20;93.90
63317;DHT22;49822;41.468;13.560;2022-12-07T04:49:19;7.40;94.20
63317;DHT22;49822;41.468;13.560;2022-12-07T04:51:47;7.50;94.10
63317;DHT22;49822;41.468;13.560;2022-12-07T04:54:15;7.50;93.70
63317;DHT22;49822;41.468;13.560;2022-12-07T04:56:43;7.50;93.50
63317;DHT22;49822;41.468;13.560;2022-12-07T04:59:12;7.50;92.70
63317;DHT22;49822;41.468;13.560;2022-12-07T05:01:40;7.30;91.70
63317;DHT22;49822;41.468;13.560;2022-12-07T05:04:09;7.40;92.10
63317;DHT22;49822;41.468;13.560;2022-12-07T05:06:37;7.40;91.90
63317;DHT22;49822;41.468;13.560;2022-12-07T05:09:04;7.30;91.20
63317;DHT22;49822;41.468;13.560;2022-12-07T05:11:33;7.30;91.50
63317;DHT22;49822;41.468;13.560;2022-12-07T05:14:28;7.40;91.80
63317;DHT22;49822;41.468;13.560;2022-12-07T05:16:56;7.50;91.90
63317;DHT22;49822;41.468;13.560;2022-12-07T05:19:23;7.50;91.50
63317;DHT22;49822;41.468;13.560;2022-12-07T05:21:51;7.60;91.80
63317;DHT22;49822;41.468;13.560;2022-12-07T05:24:21;7.60;90.80
63317;DHT22;49822;41.468;13.560;2022-12-07T05:26:49;7.50;90.70
63317;DHT22;49822;41.468;13.560;2022-12-07T05:29:18;7.60;90.70
63317;DHT22;49822;41.468;13.560;2022-12-07T05:31:46;7.60;90.90
63317;DHT22;49822;41.468;13.560;2022-12-07T05:34:14;7.40;88.80
63317;DHT22;49822;41.468;13.560;2022-12-07T05:36:42;7.00;90.00
63317;DHT22;49822;41.468;13.560;2022-12-07T05:39:10;7.00;91.80
63317;DHT22;49822;41.468;13.560;2022-12-07T05:41:37;6.90;92.20
63317;DHT22;49822;41.468;13.560;2022-12-07T05:44:24;7.00;93.40
63317;DHT22;49822;41.468;13.560;2022-12-07T05:46:52;7.20;94.00
63317;DHT22;49822;41.468;13.560;2022-12-07T05:49:19;7.30;93.30
63317;DHT22;49822;41.468;13.560;2022-12-07T05:51:47;7.20;92.60
63317;DHT22;49822;41.468;13.560;2022-12-07T05:54:15;7.20;92.50
63317;DHT22;49822;41.468;13.560;2022-12-07T05:56:43;7.30;92.90
63317;DHT22;49822;41.468;13.560;2022-12-07T05:59:11;7.30;93.10
63317;DHT22;49822;41.468;13.560;2022-12-07T06:02:09;7.40;93.60
63317;DHT22;49822;41.468;13.560;2022-12-07T06:04:39;7.50;93.50
63317;DHT22;49822;41.468;13.560;2022-12-07T06:07:07;7.50;93.00
63317;DHT22;49822;41.468;13.560;2022-12-07T06:09:35;7.50;92.50
63317;DHT22;49822;41.468;13.560;2022-12-07T06:12:04;7.50;92.20
63317;DHT22;49822;41.468;13.560;2022-12-07T06:14:51;7.50;92.20
63317;DHT22;49822;41.468;13.560;2022-12-07T06:17:20;7.50;92.20
63317;DHT22;49822;41.468;13.560;2022-12-07T06:19:48;7.60;92.20
63317;DHT22;49822;41.468;13.560;2022-12-07T06:22:16;7.70;92.40
63317;DHT22;49822;41.468;13.560;2022-12-07T06:24:44;7.80;92.40
63317;DHT22;49822;41.468;13.560;2022-12-07T06:27:12;7.60;91.40
63317;DHT22;49822;41.468;13.560;2022-12-07T06:29:39;7.60;91.50
63317;DHT22;49822;41.468;13.560;2022-12-07T06:32:07;7.40;90.20
63317;DHT22;49822;41.468;13.560;2022-12-07T06:34:34;7.40;91.20
63317;DHT22;49822;41.468;13.560;2022-12-07T06:37:03;7.50;91.70
63317;DHT22;49822;41.468;13.560;2022-12-07T06:39:30;7.50;92.40
63317;DHT22;49822;41.468;13.560;2022-12-07T06:41:58;7.60;92.00
63317;DHT22;49822;41.468;13.560;2022-12-07T06:44:26;7.30;91.40
63317;DHT22;49822;41.468;13.560;2022-12-07T06:46:54;7.40;92.70
63317;DHT22;49822;41.468;13.560;2022-12-07T06:49:41;7.50;92.90
63317;DHT22;49822;41.468;13.560;2022-12-07T06:52:10;7.50;92.60
63317;DHT22;49822;41.468;13.560;2022-12-07T06:54:37;7.40;92.40
63317;DHT22;49822;41.468;13.560;2022-12-07T06:57:04;7.40;92.60
63317;DHT22;49822;41.468;13.560;2022-12-07T06:59:32;7.50;93.50
63317;DHT22;49822;41.468;13.560;2022-12-07T07:01:59;7.60;93.60
63317;DHT22;49822;41.468;13.560;2022-12-07T07:04:27;7.80;93.80
63317;DHT22;49822;41.468;13.560;2022-12-07T07:06:54;7.80;93.60
63317;DHT22;49822;41.468;13.560;2022-12-07T07:09:26;7.90;93.00
63317;DHT22;49822;41.468;13.560;2022-12-07T07:11:54;7.80;92.50
63317;DHT22;49822;41.468;13.560;2022-12-07T07:14:22;7.80;92.10
63317;DHT22;49822;41.468;13.560;2022-12-07T07:16:49;7.80;92.30
63317;DHT22;49822;41.468;13.560;2022-12-07T07:19:17;7.80;92.50
63317;DHT22;49822;41.468;13.560;2022-12-07T07:21:45;7.80;92.90
63317;DHT22;49822;41.468;13.560;2022-12-07T07:24:13;8.00;93.10
63317;DHT22;49822;41.468;13.560;2022-12-07T07:26:40;8.00;92.70
63317;DHT22;49822;41.468;13.560;2022-12-07T07:29:09;8.10;93.00
63317;DHT22;49822;41.468;13.560;2022-12-07T07:31:36;8.20;92.70
63317;DHT22;49822;41.468;13.560;2022-12-07T07:34:04;8.20;91.60
63317;DHT22;49822;41.468;13.560;2022-12-07T07:36:33;8.10;91.20
63317;DHT22;49822;41.468;13.560;2022-12-07T07:39:00;8.20;92.20
63317;DHT22;49822;41.468;13.560;2022-12-07T07:41:28;8.40;91.80
63317;DHT22;49822;41.468;13.560;2022-12-07T07:43:56;8.60;92.50
63317;DHT22;49822;41.468;13.560;2022-12-07T07:46:23;9.00;91.70
63317;DHT22;49822;41.468;13.560;2022-12-07T07:48:51;9.20;90.30
63317;DHT22;49822;41.468;13.560;2022-12-07T07:51:20;9.40;89.50
63317;DHT22;49822;41.468;13.560;2022-12-07T07:53:48;9.60;88.20
63317;DHT22;49822;41.468;13.560;2022-12-07T07:56:16;9.70;87.70
63317;DHT22;49822;41.468;13.560;2022-12-07T07:58:43;9.80;86.50
63317;DHT22;49822;41.468;13.560;2022-12-07T08:01:11;9.70;86.70
63317;DHT22;49822;41.468;13.560;2022-12-07T08:03:41;9.90;86.20
63317;DHT22;49822;41.468;13.560;2022-12-07T08:06:09;10.00;86.50
63317;DHT22;49822;41.468;13.560;2022-12-07T08:08:37;10.20;85.50
63317;DHT22;49822;41.468;13.560;2022-12-07T08:11:09;10.10;84.00
63317;DHT22;49822;41.468;13.560;2022-12-07T08:13:37;9.90;84.90
63317;DHT22;49822;41.468;13.560;2022-12-07T08:16:09;9.60;85.80
63317;DHT22;49822;41.468;13.560;2022-12-07T08:18:41;9.60;86.60
63317;DHT22;49822;41.468;13.560;2022-12-07T08:21:14;9.60;87.30
63317;DHT22;49822;41.468;13.560;2022-12-07T08:23:42;9.70;87.60
63317;DHT22;49822;41.468;13.560;2022-12-07T08:26:13;10.00;87.60
63317;DHT22;49822;41.468;13.560;2022-12-07T08:28:42;10.00;87.50
63317;DHT22;49822;41.468;13.560;2022-12-07T08:31:13;10.10;86.80
63317;DHT22;49822;41.468;13.560;2022-12-07T08:33:44;10.30;86.70
63317;DHT22;49822;41.468;13.560;2022-12-07T08:36:12;10.60;85.80
63317;DHT22;49822;41.468;13.560;2022-12-07T08:38:41;10.60;84.60
63317;DHT22;49822;41.468;13.560;2022-12-07T08:41:27;10.50;84.90
63317;DHT22;49822;41.468;13.560;2022-12-07T08:43:55;10.50;85.20
63317;DHT22;49822;41.468;13.560;2022-12-07T08:46:25;10.80;84.70
63317;DHT22;49822;41.468;13.560;2022-12-07T08:49:05;11.00;83.90
63317;DHT22;49822;41.468;13.560;2022-12-07T08:51:34;11.10;82.20
63317;DHT22;49822;41.468;13.560;2022-12-07T08:54:05;11.40;82.40
63317;DHT22;49822;41.468;13.560;2022-12-07T08:56:34;11.60;81.30
63317;DHT22;49822;41.468;13.560;2022-12-07T08:59:02;11.90;81.20
63317;DHT22;49822;41.468;13.560;2022-12-07T09:01:30;12.50;78.70
63317;DHT22;49822;41.468;13.560;2022-12-07T09:03:58;13.20;76.20
63317;DHT22;49822;41.468;13.560;2022-12-07T09:06:26;14.20;72.80
63317;DHT22;49822;41.468;13.560;2022-12-07T09:08:57;15.60;68.70
63317;DHT22;49822;41.468;13.560;2022-12-07T09:11:25;17.00;63.20
63317;DHT22;49822;41.468;13.560;2022-12-07T09:13:55;18.00;58.60
63317;DHT22;49822;41.468;13.560;2022-12-07T09:16:23;18.70;58.10
63317;DHT22;49822;41.468;13.560;2022-12-07T09:18:52;20.10;54.60
63317;DHT22;49822;41.468;13.560;2022-12-07T09:21:20;21.30;51.10
63317;DHT22;49822;41.468;13.560;2022-12-07T09:23:48;22.30;47.10
63317;DHT22;49822;41.468;13.560;2022-12-07T09:26:16;22.50;46.60
63317;DHT22;49822;41.468;13.560;2022-12-07T09:28:43;21.40;47.80
63317;DHT22;49822;41.468;13.560;2022-12-07T09:31:12;20.30;50.20
63317;DHT22;49822;41.468;13.560;2022-12-07T09:33:56;19.90;52.30
63317;DHT22;49822;41.468;13.560;2022-12-07T09:36:25;20.80;49.80
63317;DHT22;49822;41.468;13.560;2022-12-07T09:38:53;21.50;48.20
63317;DHT22;49822;41.468;13.560;2022-12-07T09:41:24;21.50;48.80
63317;DHT22;49822;41.468;13.560;2022-12-07T09:43:54;22.40;47.10
63317;DHT22;49822;41.468;13.560;2022-12-07T09:46:24;21.10;47.70
63317;DHT22;49822;41.468;13.560;2022-12-07T09:48:52;21.10;47.30
63317;DHT22;49822;41.468;13.560;2022-12-07T09:51:22;21.50;48.20
63317;DHT22;49822;41.468;13.560;2022-12-07T09:53:53;21.70;46.80
63317;DHT22;49822;41.468;13.560;2022-12-07T09:56:22;21.50;45.90
63317;DHT22;49822;41.468;13.560;2022-12-07T09:59:02;20.50;48.70
63317;DHT22;49822;41.468;13.560;2022-12-07T10:01:32;21.70;46.20
63317;DHT22;49822;41.468;13.560;2022-12-07T10:04:15;21.30;48.30
63317;DHT22;49822;41.468;13.560;2022-12-07T10:06:44;22.00;45.80
63317;DHT22;49822;41.468;13.560;2022-12-07T10:09:17;23.40;44.80
63317;DHT22;49822;41.468;13.560;2022-12-07T10:14:28;24.40;42.20
63317;DHT22;49822;41.468;13.560;2022-12-07T10:17:36;25.10;42.60
63317;DHT22;49822;41.468;13.560;2022-12-07T10:25:26;24.80;43.40
63317;DHT22;49822;41.468;13.560;2022-12-07T10:27:59;25.00;41.60
63317;DHT22;49822;41.468;13.560;2022-12-07T10:30:27;24.80;41.90
63317;DHT22;49822;41.468;13.560;2022-12-07T10:32:55;23.90;42.80
63317;DHT22;49822;41.468;13.560;2022-12-07T10:35:29;23.00;44.40
63317;DHT22;49822;41.468;13.560;2022-12-07T10:38:00;22.50;45.80
63317;DHT22;49822;41.468;13.560;2022-12-07T10:40:33;22.00;46.50
63317;DHT22;49822;41.468;13.560;2022-12-07T10:43:15;21.20;48.40
63317;DHT22;49822;41.468;13.560;2022-12-07T11:00:24;15.60;62.90
63317;DHT22;49822;41.468;13.560;2022-12-07T11:02:59;15.30;63.80
63317;DHT22;49822;41.468;13.560;2022-12-07T11:08:27;14.70;66.00
63317;DHT22;49822;41.468;13.560;2022-12-07T11:11:02;15.00;66.90
63317;DHT22;49822;41.468;13.560;2022-12-07T11:16:30;17.20;59.00
63317;DHT22;49822;41.468;13.560;2022-12-07T11:19:26;18.20;58.90
63317;DHT22;49822;41.468;13.560;2022-12-07T11:22:15;19.20;55.80
63317;DHT22;49822;41.468;13.560;2022-12-07T11:25:03;19.70;55.80
63317;DHT22;49822;41.468;13.560;2022-12-07T11:28:02;20.20;52.80
63317;DHT22;49822;41.468;13.560;2022-12-07T11:31:03;20.10;54.30
63317;DHT22;49822;41.468;13.560;2022-12-07T11:38:53;17.10;60.70
63317;DHT22;49822;41.468;13.560;2022-12-07T11:41:35;16.70;61.40
63317;DHT22;49822;41.468;13.560;2022-12-07T11:47:10;16.20;63.50
63317;DHT22;49822;41.468;13.560;2022-12-07T11:49:48;15.60;66.10
63317;DHT22;49822;41.468;13.560;2022-12-07T11:52:25;15.30;67.90
63317;DHT22;49822;41.468;13.560;2022-12-07T11:54:57;15.10;68.90
63317;DHT22;49822;41.468;13.560;2022-12-07T11:57:37;14.90;68.90
63317;DHT22;49822;41.468;13.560;2022-12-07T12:00:15;15.00;70.70
63317;DHT22;49822;41.468;13.560;2022-12-07T12:05:50;14.80;70.60
63317;DHT22;49822;41.468;13.560;2022-12-07T12:08:27;14.70;71.30
63317;DHT22;49822;41.468;13.560;2022-12-07T12:19:42;15.50;67.20
63317;DHT22;49822;41.468;13.560;2022-12-07T12:22:30;15.40;68.30
63317;DHT22;49822;41.468;13.560;2022-12-07T12:25:06;15.20;67.70
63317;DHT22;49822;41.468;13.560;2022-12-07T12:27:37;15.00;67.80
63317;DHT22;49822;41.468;13.560;2022-12-07T12:30:31;14.70;69.20
63317;DHT22;49822;41.468;13.560;2022-12-07T12:35:35;14.60;70.80
63317;DHT22;49822;41.468;13.560;2022-12-07T12:38:29;14.60;71.60
63317;DHT22;49822;41.468;13.560;2022-12-07T12:40:58;14.80;72.80
63317;DHT22;49822;41.468;13.560;2022-12-07T12:43:43;14.80;71.70
63317;DHT22;49822;41.468;13.560;2022-12-07T12:54:58;14.50;73.40
63317;DHT22;49822;41.468;13.560;2022-12-07T12:57:29;14.90;70.40
63317;DHT22;49822;41.468;13.560;2022-12-07T12:59:58;15.00;68.90
63317;DHT22;49822;41.468;13.560;2022-12-07T13:13:31;14.50;71.60
63317;DHT22;49822;41.468;13.560;2022-12-07T13:18:41;14.20;71.80
63317;DHT22;49822;41.468;13.560;2022-12-07T13:26:23;14.40;71.50
63317;DHT22;49822;41.468;13.560;2022-12-07T13:29:09;14.50;72.30
63317;DHT22;49822;41.468;13.560;2022-12-07T13:31:42;15.00;71.50
63317;DHT22;49822;41.468;13.560;2022-12-07T13:34:35;16.10;67.50
63317;DHT22;49822;41.468;13.560;2022-12-07T13:37:23;17.00;63.20
63317;DHT22;49822;41.468;13.560;2022-12-07T13:39:56;18.00;61.80
63317;DHT22;49822;41.468;13.560;2022-12-07T13:42:30;18.70;58.40
63317;DHT22;49822;41.468;13.560;2022-12-07T13:45:00;19.00;54.80
63317;DHT22;49822;41.468;13.560;2022-12-07T13:48:18;19.30;55.30
63317;DHT22;49822;41.468;13.560;2022-12-07T13:50:27;20.10;53.50
63317;DHT22;49822;41.468;13.560;2022-12-07T13:52:59;21.40;51.10
63317;DHT22;49822;41.468;13.560;2022-12-07T13:55:28;22.30;49.00
63317;DHT22;49822;41.468;13.560;2022-12-07T13:57:56;23.20;46.30
63317;DHT22;49822;41.468;13.560;2022-12-07T14:00:26;23.60;46.70
63317;DHT22;49822;41.468;13.560;2022-12-07T14:03:04;24.10;45.00
63317;DHT22;49822;41.468;13.560;2022-12-07T14:06:04;24.50;44.80
63317;DHT22;49822;41.468;13.560;2022-12-07T14:08:32;25.20;43.70
63317;DHT22;49822;41.468;13.560;2022-12-07T14:11:01;25.40;41.20
63317;DHT22;49822;41.468;13.560;2022-12-07T14:13:35;24.40;42.20
63317;DHT22;49822;41.468;13.560;2022-12-07T14:16:25;23.20;44.70
63317;DHT22;49822;41.468;13.560;2022-12-07T14:18:57;20.80;50.00
63317;DHT22;49822;41.468;13.560;2022-12-07T14:21:27;20.00;53.10
63317;DHT22;49822;41.468;13.560;2022-12-07T14:24:16;20.30;53.10
63317;DHT22;49822;41.468;13.560;2022-12-07T14:26:46;20.70;52.50
63317;DHT22;49822;41.468;13.560;2022-12-07T14:29:30;21.10;53.40
63317;DHT22;49822;41.468;13.560;2022-12-07T14:32:14;21.10;52.10
63317;DHT22;49822;41.468;13.560;2022-12-07T14:35:11;21.60;51.70
63317;DHT22;49822;41.468;13.560;2022-12-07T14:37:40;22.00;49.70
63317;DHT22;49822;41.468;13.560;2022-12-07T14:40:13;21.90;50.30
63317;DHT22;49822;41.468;13.560;2022-12-07T14:42:42;19.60;54.00
63317;DHT22;49822;41.468;13.560;2022-12-07T14:45:18;17.00;60.70
63317;DHT22;49822;41.468;13.560;2022-12-07T14:47:47;15.90;65.50
63317;DHT22;49822;41.468;13.560;2022-12-07T14:50:37;15.40;67.50
63317;DHT22;49822;41.468;13.560;2022-12-07T14:53:30;14.50;70.50
63317;DHT22;49822;41.468;13.560;2022-12-07T14:55:59;13.90;73.40
63317;DHT22;49822;41.468;13.560;2022-12-07T14:58:26;13.60;74.80
63317;DHT22;49822;41.468;13.560;2022-12-07T15:00:55;13.30;76.60
63317;DHT22;49822;41.468;13.560;2022-12-07T15:03:24;13.30;76.80
63317;DHT22;49822;41.468;13.560;2022-12-07T15:05:52;13.50;77.30
63317;DHT22;49822;41.468;13.560;2022-12-07T15:08:19;13.70;77.10
63317;DHT22;49822;41.468;13.560;2022-12-07T15:10:47;13.90;77.30
63317;DHT22;49822;41.468;13.560;2022-12-07T15:13:16;13.90;76.60
63317;DHT22;49822;41.468;13.560;2022-12-07T15:16:07;13.70;75.80
63317;DHT22;49822;41.468;13.560;2022-12-07T15:18:42;13.00;76.60
63317;DHT22;49822;41.468;13.560;2022-12-07T15:21:29;12.40;79.80
63317;DHT22;49822;41.468;13.560;2022-12-07T18:59:01;10.40;90.30
63317;DHT22;49822;41.468;13.560;2022-12-07T19:01:50;10.10;90.00
63317;DHT22;49822;41.468;13.560;2022-12-07T19:04:19;10.10;90.30
63317;DHT22;49822;41.468;13.560;2022-12-07T19:06:48;10.20;90.70
63317;DHT22;49822;41.468;13.560;2022-12-07T19:09:16;10.20;90.80
63317;DHT22;49822;41.468;13.560;2022-12-07T19:11:43;10.20;90.30
63317;DHT22;49822;41.468;13.560;2022-12-07T19:14:28;10.10;89.80
63317;DHT22;49822;41.468;13.560;2022-12-07T19:17:01;10.10;89.70
63317;DHT22;49822;41.468;13.560;2022-12-07T19:19:32;10.10;89.80
63317;DHT22;49822;41.468;13.560;2022-12-07T19:22:00;10.10;89.70
63317;DHT22;49822;41.468;13.560;2022-12-07T19:24:28;10.00;87.80
63317;DHT22;49822;41.468;13.560;2022-12-07T19:26:57;9.40;87.80
63317;DHT22;49822;41.468;13.560;2022-12-07T19:29:25;9.30;89.60
63317;DHT22;49822;41.468;13.560;2022-12-07T19:31:57;9.40;91.30
63317;DHT22;49822;41.468;13.560;2022-12-07T19:34:29;9.50;92.30
63317;DHT22;49822;41.468;13.560;2022-12-07T19:36:57;9.80;93.20
63317;DHT22;49822;41.468;13.560;2022-12-07T19:39:26;9.60;91.00
63317;DHT22;49822;41.468;13.560;2022-12-07T19:41:57;9.40;92.70
63317;DHT22;49822;41.468;13.560;2022-12-07T19:44:25;9.50;93.30
63317;DHT22;49822;41.468;13.560;2022-12-07T19:46:55;9.60;93.80
63317;DHT22;49822;41.468;13.560;2022-12-07T19:49:33;9.70;94.10
63317;DHT22;49822;41.468;13.560;2022-12-07T19:52:05;10.00;94.00
63317;DHT22;49822;41.468;13.560;2022-12-07T19:54:34;10.00;93.40
63317;DHT22;49822;41.468;13.560;2022-12-07T19:57:02;10.00;92.30
63317;DHT22;49822;41.468;13.560;2022-12-07T19:59:33;9.80;91.10
63317;DHT22;49822;41.468;13.560;2022-12-07T20:02:01;9.80;92.10
63317;DHT22;49822;41.468;13.560;2022-12-07T20:04:29;9.70;90.90
63317;DHT22;49822;41.468;13.560;2022-12-07T20:07:02;9.30;90.90
63317;DHT22;49822;41.468;13.560;2022-12-07T20:09:30;9.20;92.80
63317;DHT22;49822;41.468;13.560;2022-12-07T20:11:57;9.40;94.00
63317;DHT22;49822;41.468;13.560;2022-12-07T20:14:44;9.60;94.50
63317;DHT22;49822;41.468;13.560;2022-12-07T20:17:14;9.80;94.10
63317;DHT22;49822;41.468;13.560;2022-12-07T20:19:41;9.70;93.10
63317;DHT22;49822;41.468;13.560;2022-12-07T20:22:10;9.70;93.40
63317;DHT22;49822;41.468;13.560;2022-12-07T20:24:38;9.90;93.70
63317;DHT22;49822;41.468;13.560;2022-12-07T20:27:06;10.00;93.50
63317;DHT22;49822;41.468;13.560;2022-12-07T20:29:33;10.10;93.40
63317;DHT22;49822;41.468;13.560;2022-12-07T20:32:01;10.10;93.10
63317;DHT22;49822;41.468;13.560;2022-12-07T20:34:30;10.20;93.10
63317;DHT22;49822;41.468;13.560;2022-12-07T20:36:58;10.10;92.30
63317;DHT22;49822;41.468;13.560;2022-12-07T20:39:25;9.80;92.40
63317;DHT22;49822;41.468;13.560;2022-12-07T20:41:52;9.80;93.60
63317;DHT22;49822;41.468;13.560;2022-12-07T20:44:38;9.80;94.00
63317;DHT22;49822;41.468;13.560;2022-12-07T20:47:07;10.00;94.50
63317;DHT22;49822;41.468;13.560;2022-12-07T20:49:36;10.20;94.50
63317;DHT22;49822;41.468;13.560;2022-12-07T20:52:04;10.30;94.00
63317;DHT22;49822;41.468;13.560;2022-12-07T20:54:32;10.40;93.80
63317;DHT22;49822;41.468;13.560;2022-12-07T20:57:00;10.40;93.00
63317;DHT22;49822;41.468;13.560;2022-12-07T20:59:27;10.30;92.50
63317;DHT22;49822;41.468;13.560;2022-12-07T21:01:54;10.00;92.30
63317;DHT22;49822;41.468;13.560;2022-12-07T21:04:22;10.00;93.50
63317;DHT22;49822;41.468;13.560;2022-12-07T21:06:49;10.10;94.20
63317;DHT22;49822;41.468;13.560;2022-12-07T21:09:16;10.10;94.30
63317;DHT22;49822;41.468;13.560;2022-12-07T21:11:46;10.20;94.40
63317;DHT22;49822;41.468;13.560;2022-12-07T21:14:14;10.20;94.00
63317;DHT22;49822;41.468;13.560;2022-12-07T21:16:42;10.20;93.70
63317;DHT22;49822;41.468;13.560;2022-12-07T21:19:10;10.20;94.20
63317;DHT22;49822;41.468;13.560;2022-12-07T21:21:38;10.30;94.30
63317;DHT22;49822;41.468;13.560;2022-12-07T21:24:06;10.40;94.30